Aérodrome :
LOGIN :

S'inscrire | Disclaimer

   EN    FR    IT 

 










Légende :    VFR   VFR Marginal   IFR   IFR Intensif   IFR Très Intensif
Visi : 
Plafond : 
>= 8 km
>= 3000ft
5 à 8 km
1000 à 3000 ft
1500m à 5 km
500 à 1000 ft
800 à 1500m
200 à 500 ft
< 800m
< 200 ft
Symboles :   Orages  Brouillard  Fortes neiges  Fortes précipitations  Vent > 20 kt
SIGMETs :   Divers  Orages  Givrage  Turbulence  Onde Orograph.  Cendres Volcan.






- Altitude de l'aérodrome : 353 ft
- Code IATA : ZAG


LDZA - Zagreb Pleso

DERNIER METAR :
  • 140600Z VRB01KT 9999 FEW037 04/03 Q1011 NOSIG

METARs EXPIRÉS :
  • 140530Z VRB02KT 9999 FEW035 05/03 Q1011 NOSIG
  • 140500Z VRB01KT 9999 BKN037 05/03 Q1011 TEMPO 3000 MIFG BR
  • 140430Z VRB01KT 9999 FEW005 OVC037 06/04 Q1011 NOSIG
  • 140400Z 07004KT 030V110 9999 FEW005 OVC037 06/04 Q1011 NOSIG
  • 140330Z VRB01KT 9999 FEW005 OVC037 06/04 Q1011 NOSIG

TAF COR TAF LDZA
Valide du 14 à 06h jusqu'au 15 à 06h UTC


140557Z 1406/1506 03004KT 9999 BKN035 TX09/1413Z TN03/1503Z
PROB40 1417/1500 2000 BR BKN005
PROB40 1423/1506 0200 FG VV001
ATIS : +385 1 6-259-214



MET'MAP, la Météo Aéronautique d'un coup d'oeil ! - Copyright ORBIFLY Décembre 2007 - Disclaimer

ORBIFLY MET'MAP TEAM :

Programmation & Développement : Alexandra Zaïnal
Conception & Développement : Baudouin d'Aumeries
Co-Programmation & Développement : Marc-Olivier Méhu
Soutien technique & logistique : Manuel Goepfert

Contact : metmap@orbifly.com




SOURCES & CREDITS :

   NOAA